createdAt,value
2018-10-07T00:01:47.295Z,22.80
2018-10-07T00:04:16.154Z,21.73
2018-10-07T00:06:45.004Z,24.27
2018-10-07T00:09:14.009Z,24.90
2018-10-07T00:11:43.424Z,24.97
2018-10-07T00:14:12.336Z,22.90
2018-10-07T00:16:41.245Z,24.80
2018-10-07T00:19:10.139Z,25.27
2018-10-07T00:21:39.017Z,23.37
2018-10-07T00:24:07.886Z,25.60
2018-10-07T00:26:36.786Z,22.03
2018-10-07T00:29:05.966Z,24.30
2018-10-07T00:31:40.608Z,25.63
2018-10-07T00:34:09.500Z,25.80
2018-10-07T00:36:38.444Z,22.70
2018-10-07T00:39:09.485Z,27.07
2018-10-07T00:41:38.355Z,25.57
2018-10-07T00:44:08.136Z,27.83
2018-10-07T00:46:36.978Z,24.00
2018-10-07T00:49:06.005Z,23.67
2018-10-07T00:51:34.856Z,23.33
2018-10-07T00:54:03.766Z,27.33
2018-10-07T00:56:32.683Z,25.90
2018-10-07T00:59:01.572Z,26.67
2018-10-07T01:01:30.466Z,25.83
2018-10-07T01:03:59.319Z,24.90
2018-10-07T01:06:28.177Z,26.50
2018-10-07T01:08:57.042Z,28.43
2018-10-07T01:11:25.962Z,30.20
2018-10-07T01:13:54.827Z,30.97
2018-10-07T01:16:23.690Z,30.13
2018-10-07T01:18:52.555Z,26.33
2018-10-07T01:21:21.677Z,28.50
2018-10-07T01:23:50.693Z,27.50
2018-10-07T01:26:19.539Z,27.63
2018-10-07T01:28:48.377Z,27.47
2018-10-07T01:31:17.316Z,31.60
2018-10-07T01:33:46.203Z,29.93
2018-10-07T01:36:15.066Z,30.93
2018-10-07T01:38:43.928Z,32.70
2018-10-07T01:41:12.852Z,32.07
2018-10-07T01:43:41.720Z,32.13
2018-10-07T01:46:10.670Z,33.83
2018-10-07T01:48:39.539Z,33.30
2018-10-07T01:51:08.543Z,32.87
2018-10-07T01:53:37.442Z,31.93
2018-10-07T01:56:06.374Z,31.07
2018-10-07T01:58:35.348Z,31.37
2018-10-07T02:01:04.329Z,32.13
2018-10-07T02:03:33.183Z,30.90
2018-10-07T02:06:02.045Z,29.03
2018-10-07T02:08:30.934Z,28.47
2018-10-07T02:10:59.875Z,29.70
2018-10-07T02:13:28.734Z,25.67
2018-10-07T02:15:57.695Z,28.87
2018-10-07T02:18:26.556Z,27.27
2018-10-07T02:20:55.513Z,24.80
2018-10-07T02:23:24.386Z,26.87
2018-10-07T02:25:53.302Z,24.70
2018-10-07T02:28:22.263Z,26.07
2018-10-07T02:30:51.176Z,26.97
2018-10-07T02:33:20.043Z,28.70
2018-10-07T02:35:48.928Z,30.43
2018-10-07T02:38:17.899Z,26.37
2018-10-07T02:40:46.833Z,26.80
2018-10-07T02:43:15.684Z,28.77
2018-10-07T02:45:44.571Z,25.80
2018-10-07T02:48:13.412Z,25.27
2018-10-07T02:50:42.483Z,27.10
2018-10-07T02:53:11.434Z,28.13
2018-10-07T02:55:40.386Z,28.73
2018-10-07T02:58:09.832Z,27.73
2018-10-07T03:00:39.138Z,30.83
2018-10-07T03:03:08.040Z,28.57
2018-10-07T03:05:36.930Z,27.90
2018-10-07T03:08:05.822Z,28.43
2018-10-07T03:10:34.768Z,30.73
2018-10-07T03:13:03.628Z,26.90
2018-10-07T03:15:32.463Z,27.67
2018-10-07T03:18:01.311Z,28.43
2018-10-07T03:20:30.219Z,27.30
2018-10-07T03:22:59.106Z,29.07
2018-10-07T03:25:27.962Z,27.83
2018-10-07T03:27:56.828Z,30.10
2018-10-07T03:30:25.708Z,28.20
2018-10-07T03:32:54.612Z,27.83
2018-10-07T03:35:23.472Z,25.80
2018-10-07T03:37:52.541Z,28.27
2018-10-07T03:40:21.431Z,24.57
2018-10-07T03:42:50.279Z,28.20
2018-10-07T03:45:19.144Z,26.80
2018-10-07T03:47:48.016Z,25.27
2018-10-07T03:50:16.910Z,26.43
2018-10-07T03:52:45.803Z,27.53
2018-10-07T03:55:14.663Z,26.23
2018-10-07T03:57:43.575Z,30.57
2018-10-07T04:00:15.864Z,28.20
2018-10-07T04:02:44.787Z,29.63
2018-10-07T04:05:13.672Z,27.23
2018-10-07T04:07:42.830Z,29.07
2018-10-07T04:10:11.728Z,25.57
2018-10-07T04:12:40.607Z,27.43
2018-10-07T04:15:09.540Z,27.37
2018-10-07T04:17:38.392Z,27.60
2018-10-07T04:20:07.335Z,25.30
2018-10-07T04:22:36.227Z,27.17
2018-10-07T04:25:05.175Z,24.97
2018-10-07T04:27:34.012Z,27.33
2018-10-07T04:30:03.068Z,24.13
2018-10-07T04:32:31.942Z,24.43
2018-10-07T04:35:00.798Z,23.80
2018-10-07T04:37:29.695Z,26.03
2018-10-07T04:39:58.631Z,27.77
2018-10-07T04:42:27.551Z,24.10
2018-10-07T04:44:56.416Z,24.53
2018-10-07T04:47:25.276Z,23.70
2018-10-07T04:49:54.268Z,21.90
2018-10-07T04:52:23.141Z,24.20
2018-10-07T04:54:51.980Z,25.13
2018-10-07T04:57:20.848Z,25.50
2018-10-07T04:59:49.748Z,24.50
2018-10-07T05:02:18.614Z,24.57
2018-10-07T05:04:47.486Z,22.53
2018-10-07T05:07:16.487Z,23.83
2018-10-07T05:09:45.535Z,23.40
2018-10-07T05:12:15.887Z,24.37
2018-10-07T05:14:44.764Z,23.33
2018-10-07T05:17:16.014Z,23.00
2018-10-07T05:19:44.888Z,23.30
2018-10-07T05:22:13.770Z,21.40
2018-10-07T05:24:42.684Z,22.70
2018-10-07T05:27:11.585Z,24.47
2018-10-07T05:29:40.553Z,22.20
2018-10-07T05:32:09.427Z,22.50
2018-10-07T05:34:38.282Z,23.43
2018-10-07T05:37:07.128Z,23.83
2018-10-07T05:39:36.084Z,25.43
2018-10-07T05:42:04.971Z,24.47
2018-10-07T05:44:33.871Z,27.90
2018-10-07T05:47:02.686Z,23.97
2018-10-07T05:49:31.645Z,23.93
2018-10-07T05:52:00.511Z,24.23
2018-10-07T05:54:29.379Z,23.20
2018-10-07T05:56:58.267Z,23.07
2018-10-07T05:59:29.447Z,21.93
2018-10-07T06:02:01.879Z,21.00
2018-10-07T06:04:43.774Z,22.23
2018-10-07T06:07:12.778Z,21.90
2018-10-07T06:09:42.704Z,21.50
2018-10-07T06:12:11.598Z,23.57
2018-10-07T06:14:57.724Z,27.57
2018-10-07T06:17:26.564Z,25.60
2018-10-07T06:19:55.555Z,24.70
2018-10-07T06:22:25.268Z,25.80
2018-10-07T06:24:54.196Z,26.30
2018-10-07T06:27:23.170Z,26.97
2018-10-07T06:29:52.234Z,30.13
2018-10-07T06:32:21.058Z,30.33
2018-10-07T06:34:49.999Z,32.10
2018-10-07T06:37:18.921Z,29.23
2018-10-07T06:39:47.929Z,33.10
2018-10-07T06:42:16.803Z,32.00
2018-10-07T06:44:45.702Z,30.70
2018-10-07T06:47:14.568Z,32.30
2018-10-07T06:49:43.520Z,33.47
2018-10-07T06:52:12.408Z,32.13
2018-10-07T06:54:41.290Z,33.53
2018-10-07T06:57:10.216Z,33.70
2018-10-07T06:59:39.127Z,33.50
2018-10-07T07:02:08.100Z,37.20
2018-10-07T07:04:36.946Z,30.73
2018-10-07T07:07:06.204Z,38.70
2018-10-07T07:09:35.196Z,33.80
2018-10-07T07:12:04.039Z,36.57
2018-10-07T07:14:32.907Z,35.90
2018-10-07T07:17:01.764Z,37.30
2018-10-07T07:19:30.751Z,34.80
2018-10-07T07:21:59.673Z,36.30
2018-10-07T07:24:28.574Z,33.37
2018-10-07T07:26:57.463Z,33.00
2018-10-07T07:29:26.396Z,36.30
2018-10-07T07:31:55.276Z,33.53
2018-10-07T07:34:24.168Z,38.00
2018-10-07T07:36:53.068Z,33.03
2018-10-07T07:39:21.975Z,32.80
2018-10-07T07:41:50.876Z,33.03
2018-10-07T07:44:19.845Z,32.70
2018-10-07T07:46:48.767Z,30.10
2018-10-07T07:49:17.750Z,30.47
2018-10-07T07:51:46.564Z,31.13
2018-10-07T07:54:15.491Z,32.13
2018-10-07T07:56:44.350Z,35.30
2018-10-07T07:59:14.440Z,34.43
2018-10-07T08:01:43.324Z,32.50
2018-10-07T08:04:12.171Z,32.03
2018-10-07T08:06:41.055Z,34.60
2018-10-07T08:09:10.724Z,33.83
2018-10-07T08:11:39.682Z,31.87
2018-10-07T08:14:08.549Z,31.50
2018-10-07T08:16:37.438Z,30.10
2018-10-07T08:19:06.374Z,32.27
2018-10-07T08:21:35.276Z,31.77
2018-10-07T08:24:04.176Z,33.30
2018-10-07T08:26:33.095Z,32.30
2018-10-07T08:29:01.982Z,35.10
2018-10-07T08:31:30.908Z,36.87
2018-10-07T08:33:59.792Z,34.70
2018-10-07T08:36:28.701Z,35.87
2018-10-07T08:38:57.560Z,34.60
2018-10-07T08:41:26.507Z,35.00
2018-10-07T08:43:55.440Z,33.80
2018-10-07T08:46:24.321Z,33.23
2018-10-07T08:48:53.185Z,32.30
2018-10-07T08:51:22.052Z,34.43
2018-10-07T08:53:50.921Z,31.30
2018-10-07T08:56:19.833Z,36.47
2018-10-07T08:58:48.667Z,34.37
2018-10-07T09:01:17.695Z,33.13
2018-10-07T09:03:46.575Z,34.73
2018-10-07T09:06:15.455Z,30.30
2018-10-07T09:08:44.349Z,32.07
2018-10-07T09:11:13.943Z,35.17
2018-10-07T09:13:42.799Z,30.43
2018-10-07T09:16:11.621Z,31.97
2018-10-07T09:18:40.502Z,32.33
2018-10-07T09:21:09.465Z,30.47
2018-10-07T09:23:38.354Z,31.00
2018-10-07T09:26:07.222Z,29.57
2018-10-07T09:28:36.531Z,37.97
2018-10-07T09:31:05.801Z,32.73
2018-10-07T09:33:34.669Z,30.03
2018-10-07T09:36:03.559Z,31.40
2018-10-07T09:38:32.442Z,28.90
2018-10-07T09:41:01.339Z,28.00
2018-10-07T09:43:30.200Z,32.97
2018-10-07T09:45:59.165Z,31.70
2018-10-07T09:48:28.227Z,29.40
2018-10-07T09:50:57.118Z,25.63
2018-10-07T09:53:25.985Z,25.20
2018-10-07T09:55:54.910Z,28.27
2018-10-07T09:58:23.735Z,28.20
2018-10-07T10:00:52.643Z,28.63
2018-10-07T10:03:21.496Z,28.63
2018-10-07T10:05:50.346Z,27.47
2018-10-07T10:08:19.248Z,27.40
2018-10-07T10:10:48.236Z,28.20
2018-10-07T10:13:17.090Z,25.43
2018-10-07T10:15:45.980Z,25.70
2018-10-07T10:18:39.701Z,23.43
2018-10-07T10:21:36.767Z,17.30
2018-10-07T10:24:31.474Z,13.10
2018-10-07T10:28:08.043Z,12.37
2018-10-07T10:31:07.088Z,14.93
2018-10-07T10:33:42.789Z,10.23
2018-10-07T10:36:34.743Z,9.60
2018-10-07T10:39:17.905Z,13.07
2018-10-07T10:42:07.947Z,12.80
2018-10-07T10:44:43.359Z,11.57
2018-10-07T10:47:23.434Z,12.13
2018-10-07T10:51:08.155Z,12.10
2018-10-07T10:53:44.435Z,11.73
2018-10-07T10:56:37.200Z,12.87
2018-10-07T11:00:25.789Z,11.40
2018-10-07T11:04:04.287Z,10.97
2018-10-07T11:06:45.667Z,11.73
2018-10-07T11:11:39.160Z,11.33
2018-10-07T11:15:52.067Z,11.90
2018-10-07T11:19:03.275Z,8.40
2018-10-07T11:22:54.492Z,11.17
2018-10-07T11:26:06.402Z,8.90
2018-10-07T11:29:02.727Z,9.13
2018-10-07T11:31:44.971Z,8.33
2018-10-07T11:35:34.928Z,10.10
2018-10-07T11:39:15.537Z,12.03
2018-10-07T11:42:26.740Z,13.27
2018-10-07T11:45:10.940Z,12.87
2018-10-07T11:47:59.243Z,14.20
2018-10-07T11:51:16.471Z,10.50
2018-10-07T11:53:53.270Z,9.10
2018-10-07T11:56:22.178Z,8.00
2018-10-07T11:58:51.059Z,10.67
2018-10-07T12:01:19.982Z,9.60
2018-10-07T12:03:48.857Z,9.90
2018-10-07T12:06:17.714Z,6.83
2018-10-07T12:08:46.582Z,7.13
2018-10-07T12:11:15.448Z,8.80
2018-10-07T12:13:44.332Z,9.00
2018-10-07T12:16:13.203Z,9.40
2018-10-07T12:18:42.086Z,9.37
2018-10-07T12:21:11.132Z,9.97
2018-10-07T12:23:40.015Z,9.70
2018-10-07T12:26:08.900Z,8.37
2018-10-07T12:28:37.808Z,9.40
2018-10-07T12:31:07.277Z,9.33
2018-10-07T12:33:36.184Z,8.20
2018-10-07T12:36:05.431Z,8.13
2018-10-07T12:38:34.319Z,10.37
2018-10-07T12:41:03.260Z,10.67
2018-10-07T12:43:32.114Z,10.47
2018-10-07T12:46:00.980Z,10.50
2018-10-07T12:48:29.941Z,11.60
2018-10-07T12:50:59.037Z,11.37
2018-10-07T12:53:27.956Z,9.97
2018-10-07T12:55:56.819Z,10.10
2018-10-07T12:58:25.671Z,10.20
2018-10-07T13:00:54.643Z,10.30
2018-10-07T13:03:23.484Z,10.50
2018-10-07T13:05:52.369Z,11.70
2018-10-07T13:08:21.234Z,11.70
2018-10-07T13:10:50.175Z,10.53
2018-10-07T13:13:19.016Z,12.30
2018-10-07T13:15:47.854Z,11.97
2018-10-07T13:18:16.712Z,11.20
2018-10-07T13:20:45.619Z,11.27
2018-10-07T13:23:14.471Z,11.60
2018-10-07T13:25:43.338Z,11.23
2018-10-07T13:28:12.227Z,9.90
2018-10-07T13:30:41.173Z,9.40
2018-10-07T13:33:10.004Z,9.67
2018-10-07T13:35:38.846Z,9.60
2018-10-07T13:38:07.708Z,10.97
2018-10-07T13:40:36.660Z,9.73
2018-10-07T13:43:05.560Z,7.77
2018-10-07T13:45:34.428Z,8.57
2018-10-07T13:48:03.268Z,8.33
2018-10-07T13:50:32.211Z,8.27
2018-10-07T13:53:01.079Z,8.50
2018-10-07T13:55:29.916Z,9.03
2018-10-07T13:57:58.771Z,8.83
2018-10-07T14:00:31.089Z,8.87
2018-10-07T14:03:00.291Z,7.23
2018-10-07T14:05:29.152Z,7.57
2018-10-07T14:07:58.047Z,6.93
2018-10-07T14:10:26.937Z,8.03
2018-10-07T14:12:55.817Z,7.90
2018-10-07T14:15:24.717Z,8.30
2018-10-07T14:17:53.585Z,8.70
2018-10-07T14:20:22.568Z,7.30
2018-10-07T14:22:51.530Z,7.83
2018-10-07T14:25:20.511Z,9.13
2018-10-07T14:27:49.686Z,9.00
2018-10-07T14:30:18.576Z,8.20
2018-10-07T14:32:47.515Z,10.07
2018-10-07T14:35:16.376Z,8.00
2018-10-07T14:37:45.360Z,8.10
2018-10-07T14:40:15.624Z,9.80
2018-10-07T14:42:44.474Z,8.70
2018-10-07T14:45:13.370Z,8.07
2018-10-07T14:47:42.229Z,7.90
2018-10-07T14:50:11.678Z,8.07
2018-10-07T14:52:40.605Z,7.43
2018-10-07T14:55:09.645Z,8.30
2018-10-07T14:57:38.423Z,6.60
2018-10-07T15:00:13.102Z,7.13
2018-10-07T15:02:44.136Z,7.30
2018-10-07T15:05:19.924Z,7.00
2018-10-07T15:07:48.791Z,8.33
2018-10-07T15:10:17.702Z,11.30
2018-10-07T15:12:46.624Z,10.77
2018-10-07T15:15:15.488Z,11.90
2018-10-07T15:17:44.327Z,10.83
2018-10-07T15:20:13.279Z,11.87
2018-10-07T15:22:42.188Z,11.10
2018-10-07T15:25:11.047Z,13.03
2018-10-07T15:27:39.925Z,11.10
2018-10-07T15:30:08.854Z,12.30
2018-10-07T15:32:37.731Z,13.73
2018-10-07T15:35:06.619Z,12.67
2018-10-07T15:37:35.468Z,12.23
2018-10-07T15:40:04.471Z,14.60
2018-10-07T15:42:33.347Z,15.60
2018-10-07T15:45:02.211Z,14.40
2018-10-07T15:47:31.100Z,13.10
2018-10-07T15:50:00.098Z,14.23
2018-10-07T15:52:28.965Z,14.70
2018-10-07T15:54:57.806Z,15.07
2018-10-07T15:57:26.683Z,14.03
2018-10-07T15:59:55.612Z,13.47
2018-10-07T16:02:25.127Z,15.77
2018-10-07T16:04:55.057Z,14.60
2018-10-07T16:07:24.229Z,14.40
2018-10-07T16:09:53.150Z,17.63
2018-10-07T16:12:22.535Z,14.60
2018-10-07T16:14:51.379Z,14.23
2018-10-07T16:17:20.331Z,14.27
2018-10-07T16:19:49.621Z,14.17
2018-10-07T16:22:18.547Z,13.47
2018-10-07T16:24:47.779Z,14.40
2018-10-07T16:27:17.112Z,14.50
2018-10-07T16:29:46.474Z,15.27
2018-10-07T16:32:15.453Z,13.77
2018-10-07T16:34:44.366Z,15.63
2018-10-07T16:37:13.207Z,14.87
2018-10-07T16:39:42.167Z,14.73
2018-10-07T16:42:11.014Z,15.37
2018-10-07T16:44:40.496Z,15.43
2018-10-07T16:47:09.371Z,14.80
2018-10-07T16:49:38.239Z,14.33
2018-10-07T16:52:07.162Z,14.23
2018-10-07T16:54:36.016Z,15.53
2018-10-07T16:57:05.088Z,16.27
2018-10-07T16:59:34.028Z,15.53
2018-10-07T17:02:02.926Z,18.03
2018-10-07T17:04:31.788Z,15.27
2018-10-07T17:07:00.650Z,15.40
2018-10-07T17:09:29.605Z,16.17
2018-10-07T17:11:58.475Z,17.00
2018-10-07T17:14:27.671Z,16.67
2018-10-07T17:16:56.532Z,18.93
2018-10-07T17:19:25.399Z,15.97
2018-10-07T17:21:54.260Z,19.40
2018-10-07T17:24:23.090Z,20.10
2018-10-07T17:26:52.023Z,17.90
2018-10-07T17:29:21.131Z,18.43
2018-10-07T17:31:49.970Z,19.13
2018-10-07T17:34:18.940Z,19.73
2018-10-07T17:36:54.636Z,20.20
2018-10-07T17:39:23.579Z,19.93
2018-10-07T17:41:52.466Z,19.10
2018-10-07T17:44:21.980Z,19.97
2018-10-07T17:46:50.877Z,18.77
2018-10-07T17:49:20.289Z,20.80
2018-10-07T17:51:49.518Z,20.10
2018-10-07T17:54:18.647Z,19.90
2018-10-07T17:56:47.859Z,20.33
2018-10-07T17:59:24.224Z,20.67
2018-10-07T18:01:55.211Z,21.93
2018-10-07T18:04:24.692Z,19.60
2018-10-07T18:06:53.928Z,21.70
2018-10-07T18:09:22.946Z,19.50
2018-10-07T18:11:52.157Z,21.27
2018-10-07T18:14:21.388Z,21.37
2018-10-07T18:16:50.840Z,22.53
2018-10-07T18:19:21.875Z,20.97
2018-10-07T18:21:52.040Z,20.30
2018-10-07T18:24:21.210Z,20.87
2018-10-07T18:26:50.492Z,22.00
2018-10-07T18:29:19.789Z,22.97
2018-10-07T18:31:48.956Z,21.80
2018-10-07T18:34:18.295Z,21.30
2018-10-07T18:36:47.162Z,22.47
2018-10-07T18:39:15.992Z,19.80
2018-10-07T18:41:45.079Z,22.30
2018-10-07T18:44:14.170Z,24.83
2018-10-07T18:46:43.907Z,25.63
2018-10-07T18:49:12.823Z,24.70
2018-10-07T18:51:42.381Z,19.30
2018-10-07T18:54:11.259Z,18.80
2018-10-07T18:56:41.200Z,18.37
2018-10-07T18:59:12.918Z,19.07
2018-10-07T19:01:42.216Z,17.80
2018-10-07T19:04:11.524Z,19.57
2018-10-07T19:06:40.677Z,20.83
2018-10-07T19:09:11.543Z,19.67
2018-10-07T19:11:41.339Z,20.27
2018-10-07T19:14:10.243Z,18.87
2018-10-07T19:16:39.519Z,19.43
2018-10-07T19:19:08.752Z,18.50
2018-10-07T19:21:38.014Z,19.93
2018-10-07T19:24:07.386Z,21.20
2018-10-07T19:26:36.959Z,21.60
2018-10-07T19:29:06.192Z,20.60
2018-10-07T19:31:35.408Z,19.67
2018-10-07T19:34:04.556Z,17.50
2018-10-07T19:36:33.535Z,17.57
2018-10-07T19:39:02.772Z,16.40
2018-10-07T19:41:32.513Z,17.07
2018-10-07T19:44:01.452Z,18.77
2018-10-07T19:46:30.343Z,14.13
2018-10-07T19:49:00.008Z,14.33
2018-10-07T19:51:29.032Z,13.80
2018-10-07T19:53:58.322Z,12.73
2018-10-07T19:56:27.244Z,11.00
2018-10-07T19:58:56.659Z,12.43
2018-10-07T20:01:25.639Z,9.90
2018-10-07T20:03:54.526Z,10.53
2018-10-07T20:06:23.431Z,12.10
2018-10-07T20:08:53.022Z,11.27
2018-10-07T20:11:21.940Z,9.93
2018-10-07T20:13:51.196Z,9.47
2018-10-07T20:16:20.739Z,10.27
2018-10-07T20:18:49.616Z,7.97
2018-10-07T20:21:19.355Z,7.93
2018-10-07T20:23:48.216Z,8.87
2018-10-07T20:26:17.172Z,7.37
2018-10-07T20:28:46.091Z,8.13
2018-10-07T20:31:14.982Z,6.20
2018-10-07T20:33:43.852Z,7.10
2018-10-07T20:36:12.774Z,6.70
2018-10-07T20:38:41.604Z,6.70
2018-10-07T20:41:10.585Z,5.77
2018-10-07T20:43:39.434Z,6.90
2018-10-07T20:46:08.313Z,6.93
2018-10-07T20:48:37.176Z,6.43
2018-10-07T20:51:06.296Z,5.73
2018-10-07T20:53:35.405Z,6.27
2018-10-07T20:56:04.299Z,5.60
2018-10-07T20:58:33.355Z,7.80
2018-10-07T21:01:02.333Z,6.13
2018-10-07T21:03:31.184Z,5.43
2018-10-07T21:06:00.539Z,5.63
2018-10-07T21:08:29.960Z,5.67
2018-10-07T21:10:59.361Z,5.90
2018-10-07T21:13:28.469Z,6.20
2018-10-07T21:15:57.371Z,5.90
2018-10-07T21:18:26.600Z,5.47
2018-10-07T21:20:55.949Z,6.33
2018-10-07T21:23:24.842Z,4.90
2018-10-07T21:25:53.968Z,5.50
2018-10-07T21:28:23.439Z,7.40
2018-10-07T21:30:52.917Z,5.77
2018-10-07T21:33:22.403Z,7.47
2018-10-07T21:35:51.720Z,5.97
2018-10-07T21:38:21.076Z,5.97
2018-10-07T21:40:50.445Z,8.60
2018-10-07T21:43:19.584Z,6.40
2018-10-07T21:45:48.471Z,6.10
2018-10-07T21:48:17.620Z,5.80
2018-10-07T21:50:46.928Z,6.00
2018-10-07T21:53:15.828Z,5.47
2018-10-07T21:55:45.076Z,6.10
2018-10-07T21:58:14.336Z,5.67
2018-10-07T22:00:43.558Z,6.87
2018-10-07T22:03:12.679Z,5.53
2018-10-07T22:05:41.709Z,6.40
2018-10-07T22:08:10.558Z,6.33
2018-10-07T22:10:46.436Z,5.47
2018-10-07T22:13:16.819Z,5.43
2018-10-07T22:15:46.081Z,6.63
2018-10-07T22:18:15.438Z,5.30
2018-10-07T22:20:44.393Z,6.30
2018-10-07T22:23:13.259Z,6.00
2018-10-07T22:25:42.124Z,5.93
2018-10-07T22:28:11.072Z,5.77
2018-10-07T22:30:40.611Z,5.20
2018-10-07T22:33:09.550Z,5.30
2018-10-07T22:35:38.515Z,5.57
2018-10-07T22:38:07.370Z,5.37
2018-10-07T22:40:36.251Z,5.30
2018-10-07T22:43:05.188Z,5.97
2018-10-07T22:45:34.093Z,6.23
2018-10-07T22:48:02.955Z,5.77
2018-10-07T22:50:31.910Z,5.23
2018-10-07T22:53:00.759Z,5.23
2018-10-07T22:55:29.615Z,8.40
2018-10-07T22:57:58.540Z,5.57
2018-10-07T23:00:31.822Z,6.43
2018-10-07T23:03:00.795Z,5.20
2018-10-07T23:05:29.653Z,5.10
2018-10-07T23:07:58.511Z,6.13
2018-10-07T23:10:27.463Z,6.10
2018-10-07T23:12:56.299Z,5.47
2018-10-07T23:15:25.139Z,6.10
2018-10-07T23:17:54.115Z,5.20
2018-10-07T23:20:23.014Z,5.77
2018-10-07T23:22:51.939Z,5.20
2018-10-07T23:25:21.002Z,6.77
2018-10-07T23:27:50.004Z,6.20
2018-10-07T23:30:18.952Z,5.73
2018-10-07T23:32:47.803Z,6.20
2018-10-07T23:35:16.675Z,6.27
2018-10-07T23:37:45.519Z,6.20
2018-10-07T23:40:14.511Z,5.97
2018-10-07T23:42:43.361Z,6.10
2018-10-07T23:45:12.307Z,6.47
2018-10-07T23:47:41.181Z,6.50
2018-10-07T23:50:10.083Z,6.87
2018-10-07T23:52:38.951Z,5.23
2018-10-07T23:55:07.879Z,5.37
2018-10-07T23:57:36.760Z,6.87
